createdAt,value
2023-04-26T00:01:19.795Z,2.60
2023-04-26T00:04:22.701Z,3.17
2023-04-26T00:07:25.646Z,3.35
2023-04-26T00:10:27.990Z,3.05
2023-04-26T00:13:30.365Z,3.08
2023-04-26T00:16:32.714Z,3.23
2023-04-26T00:19:35.165Z,3.10
2023-04-26T00:22:37.737Z,2.88
2023-04-26T00:25:40.152Z,3.83
2023-04-26T00:28:42.658Z,3.42
2023-04-26T00:31:45.031Z,3.13
2023-04-26T00:34:47.403Z,3.40
2023-04-26T00:37:49.707Z,3.40
2023-04-26T00:40:52.131Z,3.58
2023-04-26T00:43:54.527Z,3.40
2023-04-26T00:46:57.121Z,3.43
2023-04-26T00:50:01.124Z,3.40
2023-04-26T00:53:04.230Z,3.53
2023-04-26T00:56:08.074Z,3.08
2023-04-26T00:59:10.423Z,3.10
2023-04-26T01:02:13.446Z,3.17
2023-04-26T01:05:15.794Z,3.10
2023-04-26T01:08:21.311Z,3.10
2023-04-26T01:11:23.915Z,3.20
2023-04-26T01:14:27.221Z,3.05
2023-04-26T01:17:29.917Z,3.27
2023-04-26T01:20:32.572Z,3.80
2023-04-26T01:23:37.063Z,3.45
2023-04-26T01:26:46.718Z,3.75
2023-04-26T01:29:52.073Z,3.25
2023-04-26T01:32:54.455Z,3.20
2023-04-26T01:35:56.913Z,3.73
2023-04-26T01:38:59.184Z,3.47
2023-04-26T01:42:03.175Z,3.50
2023-04-26T01:45:07.813Z,3.67
2023-04-26T01:48:28.404Z,3.67
2023-04-26T01:51:30.736Z,3.40
2023-04-26T01:54:33.095Z,4.10
2023-04-26T01:57:35.875Z,3.33
2023-04-26T02:00:38.192Z,3.58
2023-04-26T02:03:40.882Z,3.43
2023-04-26T02:06:43.310Z,3.20
2023-04-26T02:09:46.624Z,3.22
2023-04-26T02:12:48.884Z,3.13
2023-04-26T02:15:51.610Z,2.95
2023-04-26T02:18:54.925Z,2.70
2023-04-26T02:21:58.501Z,3.00
2023-04-26T02:25:00.887Z,3.50
2023-04-26T02:28:06.657Z,3.03
2023-04-26T02:31:09.369Z,2.90
2023-04-26T02:34:12.751Z,2.70
2023-04-26T02:37:15.269Z,3.00
2023-04-26T02:40:20.688Z,3.05
2023-04-26T02:43:23.030Z,2.83
2023-04-26T02:46:25.688Z,2.83
2023-04-26T02:49:28.195Z,2.67
2023-04-26T02:52:30.708Z,2.60
2023-04-26T02:55:33.347Z,2.60
2023-04-26T02:58:35.899Z,2.65
2023-04-26T03:01:38.741Z,2.60
2023-04-26T03:04:42.035Z,2.50
2023-04-26T03:07:44.411Z,2.67
2023-04-26T03:10:47.005Z,2.90
2023-04-26T03:13:49.615Z,2.55
2023-04-26T03:16:52.403Z,2.30
2023-04-26T03:19:55.175Z,2.30
2023-04-26T03:22:57.628Z,2.33
2023-04-26T03:26:00.289Z,2.42
2023-04-26T03:29:03.725Z,2.42
2023-04-26T03:32:07.358Z,2.22
2023-04-26T03:35:10.595Z,1.90
2023-04-26T03:38:13.049Z,2.37
2023-04-26T03:41:16.937Z,2.10
2023-04-26T03:44:19.734Z,1.98
2023-04-26T03:47:22.302Z,2.35
2023-04-26T03:50:25.084Z,2.13
2023-04-26T03:53:27.666Z,2.57
2023-04-26T03:56:30.478Z,2.13
2023-04-26T03:59:33.006Z,2.80
2023-04-26T04:02:35.520Z,2.05
2023-04-26T04:05:38.273Z,1.90
2023-04-26T04:08:40.754Z,2.20
2023-04-26T04:11:45.153Z,2.08
2023-04-26T04:14:48.711Z,2.10
2023-04-26T04:17:51.837Z,2.35
2023-04-26T04:20:54.198Z,2.10
2023-04-26T04:23:56.684Z,2.30
2023-04-26T04:27:01.317Z,2.60
2023-04-26T04:30:10.093Z,3.00
2023-04-26T04:33:12.971Z,3.33
2023-04-26T04:36:17.084Z,2.77
2023-04-26T04:39:20.794Z,3.17
2023-04-26T04:42:23.552Z,2.90
2023-04-26T04:45:27.164Z,3.13
2023-04-26T04:48:31.126Z,2.40
2023-04-26T04:51:33.445Z,2.40
2023-04-26T04:54:35.904Z,2.57
2023-04-26T04:57:40.637Z,2.45
2023-04-26T05:00:45.906Z,2.28
2023-04-26T05:03:56.165Z,2.30
2023-04-26T05:06:59.472Z,1.80
2023-04-26T05:10:02.325Z,2.50
2023-04-26T05:13:06.158Z,2.83
2023-04-26T05:16:09.017Z,3.20
2023-04-26T05:19:13.464Z,3.05
2023-04-26T05:22:18.855Z,3.30
2023-04-26T05:25:22.551Z,3.10
2023-04-26T05:28:29.774Z,2.97
2023-04-26T05:31:52.304Z,3.25
2023-04-26T05:35:23.823Z,3.42
2023-04-26T05:38:26.696Z,2.60
2023-04-26T05:41:29.063Z,3.07
2023-04-26T05:44:31.485Z,2.88
2023-04-26T05:47:33.860Z,2.42
2023-04-26T05:50:38.844Z,3.22
2023-04-26T05:53:42.756Z,2.97
2023-04-26T05:56:45.065Z,2.93
2023-04-26T05:59:47.954Z,2.60
2023-04-26T06:02:50.639Z,2.42
2023-04-26T06:05:53.602Z,5.00
2023-04-26T06:08:57.875Z,2.73
2023-04-26T06:12:00.203Z,3.43
2023-04-26T06:15:03.000Z,3.70
2023-04-26T06:18:07.485Z,2.80
2023-04-26T06:21:11.283Z,3.95
2023-04-26T06:24:13.623Z,2.93
2023-04-26T06:27:15.992Z,2.57
2023-04-26T06:30:21.936Z,3.38
2023-04-26T06:33:25.469Z,2.85
2023-04-26T06:36:28.282Z,3.95
2023-04-26T06:39:30.981Z,2.30
2023-04-26T06:42:33.580Z,2.70
2023-04-26T06:45:48.212Z,3.22
2023-04-26T06:48:53.943Z,2.90
2023-04-26T06:51:56.665Z,2.28
2023-04-26T06:55:13.060Z,2.33
2023-04-26T06:58:15.394Z,2.53
2023-04-26T07:01:23.627Z,1.88
2023-04-26T07:04:26.162Z,1.75
2023-04-26T07:07:28.678Z,1.88
2023-04-26T07:10:31.070Z,2.67
2023-04-26T07:13:34.246Z,2.00
2023-04-26T07:16:36.645Z,2.38
2023-04-26T07:19:38.988Z,1.63
2023-04-26T07:22:41.351Z,1.63
2023-04-26T07:25:43.639Z,1.63
2023-04-26T07:28:45.915Z,1.40
2023-04-26T07:31:49.201Z,1.42
2023-04-26T07:34:51.787Z,1.55
2023-04-26T07:37:54.062Z,1.48
2023-04-26T07:40:56.382Z,1.60
2023-04-26T07:43:59.247Z,1.80
2023-04-26T07:47:01.635Z,1.75
2023-04-26T07:50:04.392Z,1.80
2023-04-26T07:53:06.713Z,1.20
2023-04-26T07:56:11.703Z,1.53
2023-04-26T07:59:13.934Z,1.53
2023-04-26T08:02:17.386Z,2.83
2023-04-26T08:05:20.177Z,1.70
2023-04-26T08:08:23.114Z,1.40
2023-04-26T08:11:25.435Z,1.30
2023-04-26T08:14:28.773Z,1.40
2023-04-26T08:17:37.651Z,1.42
2023-04-26T08:20:40.127Z,1.50
2023-04-26T08:23:42.453Z,1.52
2023-04-26T08:26:44.770Z,1.17
2023-04-26T08:29:49.503Z,1.47
2023-04-26T08:32:51.868Z,1.48
2023-04-26T08:35:54.215Z,1.73
2023-04-26T08:38:57.723Z,1.70
2023-04-26T08:42:05.945Z,2.20
2023-04-26T08:45:08.924Z,1.47
2023-04-26T08:48:14.967Z,1.60
2023-04-26T08:51:18.121Z,1.58
2023-04-26T08:54:20.888Z,1.60
2023-04-26T08:57:24.299Z,1.57
2023-04-26T09:00:27.477Z,1.47
2023-04-26T09:03:30.139Z,1.17
2023-04-26T09:06:33.472Z,1.20
2023-04-26T09:09:39.530Z,1.50
2023-04-26T09:12:41.839Z,1.53
2023-04-26T09:15:44.177Z,1.50
2023-04-26T09:18:54.985Z,1.63
2023-04-26T09:21:57.812Z,1.65
2023-04-26T09:25:01.109Z,1.48
2023-04-26T09:28:04.799Z,1.23
2023-04-26T09:31:07.151Z,1.50
2023-04-26T09:34:11.614Z,1.65
2023-04-26T09:37:16.791Z,1.33
2023-04-26T09:40:20.247Z,1.60
2023-04-26T09:43:23.142Z,1.50
2023-04-26T09:46:25.843Z,1.43
2023-04-26T09:49:50.508Z,1.23
2023-04-26T09:52:52.944Z,1.48
2023-04-26T09:55:56.352Z,1.30
2023-04-26T09:59:00.879Z,1.50
2023-04-26T10:02:03.819Z,1.70
2023-04-26T10:05:07.329Z,1.33
2023-04-26T10:08:10.022Z,1.33
2023-04-26T10:11:13.133Z,1.50
2023-04-26T10:14:15.676Z,1.70
2023-04-26T10:17:19.559Z,2.87
2023-04-26T10:20:22.900Z,1.20
2023-04-26T10:23:28.513Z,1.30
2023-04-26T10:26:53.510Z,1.30
2023-04-26T10:29:55.856Z,1.10
2023-04-26T10:32:58.231Z,1.00
2023-04-26T10:36:04.062Z,1.00
2023-04-26T10:39:23.444Z,1.10
2023-04-26T10:42:30.972Z,1.20
2023-04-26T10:45:33.367Z,0.70
2023-04-26T10:48:35.702Z,1.40
2023-04-26T10:51:38.086Z,1.30
2023-04-26T10:54:59.504Z,1.25
2023-04-26T10:58:01.732Z,0.82
2023-04-26T11:01:17.564Z,0.73
2023-04-26T11:04:20.057Z,1.20
2023-04-26T11:07:37.974Z,1.30
2023-04-26T11:10:41.221Z,1.10
2023-04-26T11:13:44.152Z,1.45
2023-04-26T11:16:46.653Z,0.80
2023-04-26T11:19:48.978Z,1.00
2023-04-26T11:22:51.635Z,1.02
2023-04-26T11:25:55.157Z,1.02
2023-04-26T11:28:57.541Z,0.95
2023-04-26T11:31:59.902Z,1.27
2023-04-26T11:35:02.349Z,1.10
2023-04-26T11:38:07.966Z,0.98
2023-04-26T11:41:11.694Z,0.70
2023-04-26T11:44:18.728Z,0.85
2023-04-26T11:47:22.892Z,1.10
2023-04-26T11:50:26.989Z,1.10
2023-04-26T11:53:40.707Z,1.25
2023-04-26T11:56:43.079Z,0.90
2023-04-26T11:59:45.931Z,1.13
2023-04-26T12:02:48.956Z,1.20
2023-04-26T12:05:56.301Z,1.03
2023-04-26T12:08:58.719Z,1.10
2023-04-26T12:12:02.240Z,1.10
2023-04-26T12:15:10.527Z,1.15
2023-04-26T12:18:13.066Z,0.90
2023-04-26T12:21:16.071Z,0.90
2023-04-26T12:24:26.495Z,0.80
2023-04-26T12:27:28.757Z,1.13
2023-04-26T12:30:31.384Z,0.93
2023-04-26T12:33:39.608Z,1.10
2023-04-26T12:36:44.494Z,1.40
2023-04-26T12:39:47.185Z,1.20
2023-04-26T12:42:50.835Z,0.80
2023-04-26T12:45:53.490Z,0.80
2023-04-26T12:48:55.827Z,0.70
2023-04-26T12:51:58.154Z,0.90
2023-04-26T12:55:00.517Z,1.08
2023-04-26T12:58:02.919Z,0.93
2023-04-26T13:01:05.316Z,1.98
2023-04-26T13:04:07.813Z,0.90
2023-04-26T13:07:10.395Z,0.80
2023-04-26T13:10:13.442Z,0.73
2023-04-26T13:13:16.409Z,0.80
2023-04-26T13:16:18.831Z,0.93
2023-04-26T13:19:21.323Z,0.80
2023-04-26T13:22:23.734Z,0.83
2023-04-26T13:25:26.076Z,0.80
2023-04-26T13:28:28.413Z,0.95
2023-04-26T13:31:31.044Z,0.82
2023-04-26T13:34:33.310Z,0.90
2023-04-26T13:37:35.671Z,1.33
2023-04-26T13:40:37.996Z,0.85
2023-04-26T13:43:40.368Z,0.65
2023-04-26T13:46:43.096Z,0.70
2023-04-26T13:49:45.452Z,1.03
2023-04-26T13:52:50.100Z,1.10
2023-04-26T13:55:52.510Z,0.88
2023-04-26T13:58:56.576Z,0.77
2023-04-26T14:01:59.520Z,0.80
2023-04-26T14:05:02.178Z,0.80
2023-04-26T14:08:04.741Z,1.43
2023-04-26T14:11:07.977Z,1.75
2023-04-26T14:14:11.066Z,1.08
2023-04-26T14:17:13.908Z,0.85
2023-04-26T14:20:16.276Z,1.03
2023-04-26T14:23:18.588Z,1.10
2023-04-26T14:26:20.978Z,0.80
2023-04-26T14:29:23.311Z,0.98
2023-04-26T14:32:25.979Z,1.00
2023-04-26T14:35:28.701Z,0.90
2023-04-26T14:38:31.519Z,0.83
2023-04-26T14:41:33.881Z,1.40
2023-04-26T14:44:37.340Z,1.30
2023-04-26T14:47:39.734Z,1.20
2023-04-26T14:50:42.426Z,1.03
2023-04-26T14:53:44.789Z,0.80
2023-04-26T14:56:47.116Z,0.90
2023-04-26T14:59:49.410Z,0.75
2023-04-26T15:02:51.890Z,0.70
2023-04-26T15:05:54.364Z,0.73
2023-04-26T15:08:56.679Z,0.87
2023-04-26T15:11:58.974Z,1.00
2023-04-26T15:15:01.340Z,0.70
2023-04-26T15:18:03.920Z,0.60
2023-04-26T15:21:06.257Z,0.77
2023-04-26T15:24:08.792Z,0.63
2023-04-26T15:27:11.101Z,0.90
2023-04-26T15:30:13.586Z,1.08
2023-04-26T15:33:17.244Z,0.60
2023-04-26T15:36:20.588Z,0.80
2023-04-26T15:39:22.904Z,0.87
2023-04-26T15:42:25.234Z,0.70
2023-04-26T15:45:27.509Z,0.88
2023-04-26T15:48:29.940Z,0.85
2023-04-26T15:51:32.348Z,0.90
2023-04-26T15:54:34.784Z,9.40
2023-04-26T15:57:37.844Z,1.13
2023-04-26T16:00:40.251Z,0.90
2023-04-26T16:03:46.521Z,0.60
2023-04-26T16:06:49.731Z,0.70
2023-04-26T16:09:52.625Z,1.23
2023-04-26T16:12:54.956Z,0.60
2023-04-26T16:15:57.401Z,0.80
2023-04-26T16:18:59.702Z,0.88
2023-04-26T16:22:02.080Z,1.10
2023-04-26T16:25:06.882Z,0.70
2023-04-26T16:28:11.762Z,0.75
2023-04-26T16:31:14.326Z,0.82
2023-04-26T16:34:17.003Z,0.80
2023-04-26T16:37:19.357Z,0.93
2023-04-26T16:40:23.577Z,0.67
2023-04-26T16:43:30.245Z,0.82
2023-04-26T16:46:32.707Z,0.93
2023-04-26T16:49:35.150Z,0.68
2023-04-26T16:52:37.660Z,0.70
2023-04-26T16:55:40.010Z,0.60
2023-04-26T16:58:42.342Z,1.13
2023-04-26T17:01:44.683Z,0.65
2023-04-26T17:04:47.509Z,0.60
2023-04-26T17:07:50.636Z,0.87
2023-04-26T17:10:53.007Z,0.50
2023-04-26T17:13:55.451Z,0.98
2023-04-26T17:16:57.726Z,0.80
2023-04-26T17:20:00.060Z,0.85
2023-04-26T17:23:04.212Z,0.80
2023-04-26T17:26:06.490Z,1.00
2023-04-26T17:29:08.791Z,0.70
2023-04-26T17:32:11.439Z,0.80
2023-04-26T17:35:13.980Z,0.88
2023-04-26T17:38:16.300Z,0.80
2023-04-26T17:41:18.815Z,1.00
2023-04-26T17:44:21.127Z,0.68
2023-04-26T17:47:23.502Z,0.70
2023-04-26T17:50:25.827Z,0.77
2023-04-26T17:53:28.112Z,0.63
2023-04-26T17:56:30.549Z,1.00
2023-04-26T17:59:33.065Z,0.80
2023-04-26T18:02:36.485Z,0.88
2023-04-26T18:05:38.980Z,1.15
2023-04-26T18:08:42.019Z,1.33
2023-04-26T18:11:47.973Z,1.00
2023-04-26T18:14:51.721Z,1.35
2023-04-26T18:17:54.020Z,1.00
2023-04-26T18:20:56.481Z,0.85
2023-04-26T18:24:00.612Z,1.47
2023-04-26T18:27:04.707Z,1.00
2023-04-26T18:30:08.189Z,1.20
2023-04-26T18:33:10.550Z,1.08
2023-04-26T18:36:12.904Z,1.20
2023-04-26T18:39:15.236Z,1.17
2023-04-26T18:42:17.526Z,1.13
2023-04-26T18:45:20.066Z,1.23
2023-04-26T18:48:22.397Z,1.75
2023-04-26T18:51:25.734Z,1.48
2023-04-26T18:54:32.198Z,1.23
2023-04-26T18:57:34.542Z,1.30
2023-04-26T19:00:37.189Z,1.52
2023-04-26T19:03:39.620Z,1.88
2023-04-26T19:06:42.114Z,1.88
2023-04-26T19:09:53.766Z,2.07
2023-04-26T19:12:59.641Z,1.53
2023-04-26T19:16:04.399Z,1.50
2023-04-26T19:19:06.665Z,1.60
2023-04-26T19:22:09.064Z,1.45
2023-04-26T19:25:11.430Z,1.30
2023-04-26T19:28:13.902Z,1.67
2023-04-26T19:31:16.192Z,1.20
2023-04-26T19:34:18.751Z,1.10
2023-04-26T19:37:21.035Z,1.30
2023-04-26T19:40:23.319Z,1.50
2023-04-26T19:43:25.644Z,0.90
2023-04-26T19:46:27.989Z,1.60
2023-04-26T19:49:30.323Z,1.20
2023-04-26T19:52:32.585Z,1.27
2023-04-26T19:55:34.993Z,1.33
2023-04-26T19:58:37.681Z,1.70
2023-04-26T20:01:39.918Z,1.80
2023-04-26T20:04:42.902Z,1.50
2023-04-26T20:07:45.187Z,1.30
2023-04-26T20:10:47.888Z,1.30
2023-04-26T20:13:50.228Z,1.60
2023-04-26T20:16:52.546Z,1.10
2023-04-26T20:19:55.088Z,1.30
2023-04-26T20:22:57.403Z,1.30
2023-04-26T20:25:59.695Z,0.93
2023-04-26T20:29:02.140Z,0.83
2023-04-26T20:32:04.752Z,1.58
2023-04-26T20:35:08.410Z,1.33
2023-04-26T20:38:11.012Z,1.10
2023-04-26T20:41:13.285Z,1.33
2023-04-26T20:44:15.687Z,1.23
2023-04-26T20:47:18.429Z,1.20
2023-04-26T20:50:20.999Z,1.60
2023-04-26T20:53:23.280Z,1.77
2023-04-26T20:56:26.287Z,1.70
2023-04-26T20:59:28.628Z,2.10
2023-04-26T21:02:31.155Z,2.10
2023-04-26T21:05:33.593Z,2.03
2023-04-26T21:08:36.920Z,2.20
2023-04-26T21:11:39.461Z,2.33
2023-04-26T21:14:41.823Z,2.73
2023-04-26T21:17:44.124Z,2.85
2023-04-26T21:20:46.487Z,2.35
2023-04-26T21:23:48.800Z,1.95
2023-04-26T21:26:51.098Z,2.00
2023-04-26T21:29:53.550Z,2.00
2023-04-26T21:32:55.894Z,1.90
2023-04-26T21:36:00.343Z,2.30
2023-04-26T21:39:03.612Z,2.53
2023-04-26T21:42:06.053Z,2.30
2023-04-26T21:45:08.841Z,2.27
2023-04-26T21:48:11.421Z,2.60
2023-04-26T21:51:13.795Z,2.30
2023-04-26T21:54:16.269Z,2.33
2023-04-26T21:57:20.301Z,2.20
2023-04-26T22:00:23.542Z,2.50
2023-04-26T22:03:26.433Z,2.60
2023-04-26T22:06:29.177Z,2.60
2023-04-26T22:09:31.501Z,2.70
2023-04-26T22:12:33.836Z,2.20
2023-04-26T22:15:36.534Z,2.27
2023-04-26T22:18:38.785Z,2.58
2023-04-26T22:21:41.153Z,2.58
2023-04-26T22:24:43.453Z,2.58
2023-04-26T22:27:45.805Z,2.50
2023-04-26T22:30:48.046Z,2.77
2023-04-26T22:33:50.407Z,2.10
2023-04-26T22:36:52.721Z,2.40
2023-04-26T22:39:56.451Z,2.40
2023-04-26T22:42:58.773Z,2.23
2023-04-26T22:46:01.135Z,2.00
2023-04-26T22:49:03.479Z,2.67
2023-04-26T22:52:12.087Z,2.67
2023-04-26T22:55:19.576Z,2.03
2023-04-26T22:58:21.954Z,2.27
2023-04-26T23:01:24.350Z,3.70
2023-04-26T23:04:26.785Z,2.15
2023-04-26T23:07:29.048Z,3.00
2023-04-26T23:10:31.384Z,2.47
2023-04-26T23:13:33.654Z,3.20
2023-04-26T23:16:36.231Z,3.10
2023-04-26T23:19:38.513Z,3.72
2023-04-26T23:22:41.926Z,4.68
2023-04-26T23:25:44.233Z,5.10
2023-04-26T23:28:46.647Z,5.20
2023-04-26T23:31:49.008Z,4.57
2023-04-26T23:34:51.413Z,4.70
2023-04-26T23:37:53.796Z,4.53
2023-04-26T23:40:56.278Z,4.28
2023-04-26T23:43:58.568Z,3.53
2023-04-26T23:47:00.937Z,3.73
2023-04-26T23:50:03.469Z,3.20
2023-04-26T23:53:05.772Z,3.90
2023-04-26T23:56:08.093Z,2.72
2023-04-26T23:59:10.538Z,3.13
